createdAt,value
2023-02-08T00:00:00.474Z,9.50
2023-02-08T00:02:27.977Z,8.97
2023-02-08T00:04:55.458Z,9.40
2023-02-08T00:07:22.893Z,12.17
2023-02-08T00:09:50.347Z,11.57
2023-02-08T00:12:19.202Z,11.97
2023-02-08T00:14:46.680Z,11.43
2023-02-08T00:17:14.142Z,10.93
2023-02-08T00:19:41.734Z,10.70
2023-02-08T00:22:09.205Z,10.50
2023-02-08T00:24:36.692Z,10.77
2023-02-08T00:27:04.215Z,10.57
2023-02-08T00:29:33.510Z,11.10
2023-02-08T00:32:01.221Z,10.30
2023-02-08T00:34:28.737Z,10.67
2023-02-08T00:36:56.189Z,9.67
2023-02-08T00:39:24.525Z,11.03
2023-02-08T00:41:51.976Z,10.90
2023-02-08T00:44:19.580Z,10.47
2023-02-08T00:46:48.470Z,10.83
2023-02-08T00:49:17.143Z,11.00
2023-02-08T00:51:44.598Z,10.90
2023-02-08T00:54:14.952Z,11.13
2023-02-08T00:56:42.575Z,11.63
2023-02-08T00:59:10.029Z,11.07
2023-02-08T01:01:38.176Z,10.60
2023-02-08T01:04:07.791Z,9.97
2023-02-08T01:06:35.363Z,11.50
2023-02-08T01:09:02.806Z,10.77
2023-02-08T01:11:30.297Z,11.00
2023-02-08T01:13:59.290Z,11.60
2023-02-08T01:16:28.640Z,11.47
2023-02-08T01:18:57.627Z,12.17
2023-02-08T01:21:28.645Z,11.77
2023-02-08T01:23:56.323Z,10.77
2023-02-08T01:26:25.807Z,11.43
2023-02-08T01:28:54.436Z,11.47
2023-02-08T01:31:24.121Z,11.63
2023-02-08T01:33:52.275Z,11.10
2023-02-08T01:36:20.238Z,12.30
2023-02-08T01:38:49.407Z,11.50
2023-02-08T01:41:21.000Z,11.60
2023-02-08T01:44:05.447Z,11.53
2023-02-08T01:46:34.446Z,11.70
2023-02-08T01:49:06.214Z,12.43
2023-02-08T01:51:37.478Z,11.70
2023-02-08T01:54:10.235Z,12.10
2023-02-08T01:56:41.138Z,11.37
2023-02-08T01:59:14.078Z,11.77
2023-02-08T02:01:43.601Z,12.30
2023-02-08T02:04:11.302Z,11.90
2023-02-08T02:06:44.581Z,11.57
2023-02-08T02:09:19.227Z,11.23
2023-02-08T02:11:46.971Z,11.60
2023-02-08T02:14:14.818Z,11.20
2023-02-08T02:16:42.316Z,11.07
2023-02-08T02:19:20.084Z,11.10
2023-02-08T02:21:58.554Z,11.90
2023-02-08T02:24:52.609Z,10.90
2023-02-08T02:27:44.925Z,10.30
2023-02-08T02:30:45.230Z,10.30
2023-02-08T02:33:42.136Z,10.37
2023-02-08T02:36:18.975Z,10.50
2023-02-08T02:39:02.702Z,10.47
2023-02-08T02:41:57.927Z,11.63
2023-02-08T02:44:32.602Z,12.57
2023-02-08T02:47:07.741Z,11.93
2023-02-08T02:49:40.220Z,11.00
2023-02-08T02:52:13.409Z,12.00
2023-02-08T02:54:46.351Z,11.37
2023-02-08T02:57:19.006Z,12.10
2023-02-08T02:59:47.557Z,12.00
2023-02-08T03:02:15.678Z,11.53
2023-02-08T03:04:55.598Z,12.43
2023-02-08T03:07:38.307Z,12.33
2023-02-08T03:10:15.716Z,11.27
2023-02-08T03:12:52.785Z,11.53
2023-02-08T03:15:29.712Z,11.13
2023-02-08T03:18:06.782Z,11.43
2023-02-08T03:20:39.727Z,11.37
2023-02-08T03:23:13.172Z,12.10
2023-02-08T03:25:51.028Z,12.03
2023-02-08T03:28:24.962Z,10.93
2023-02-08T03:31:00.616Z,10.53
2023-02-08T03:33:34.130Z,11.07
2023-02-08T03:36:07.173Z,10.77
2023-02-08T03:38:38.525Z,12.03
2023-02-08T03:41:10.290Z,13.37
2023-02-08T03:43:42.026Z,12.73
2023-02-08T03:46:13.124Z,12.77
2023-02-08T03:48:46.820Z,14.53
2023-02-08T03:51:17.825Z,13.03
2023-02-08T03:53:47.842Z,12.10
2023-02-08T03:56:20.976Z,12.27
2023-02-08T03:58:53.100Z,12.47
2023-02-08T04:01:25.935Z,11.87
2023-02-08T04:03:54.567Z,12.90
2023-02-08T04:06:24.116Z,13.53
2023-02-08T04:08:51.706Z,14.13
2023-02-08T04:11:19.295Z,12.40
2023-02-08T04:13:47.202Z,14.77
2023-02-08T04:16:15.029Z,15.97
2023-02-08T04:18:42.953Z,16.57
2023-02-08T04:21:10.404Z,14.10
2023-02-08T04:23:39.347Z,13.67
2023-02-08T04:26:07.579Z,13.43
2023-02-08T04:28:35.388Z,12.27
2023-02-08T04:31:03.021Z,11.80
2023-02-08T04:33:30.538Z,12.67
2023-02-08T04:35:57.997Z,12.27
2023-02-08T04:38:25.602Z,12.27
2023-02-08T04:40:54.435Z,11.60
2023-02-08T04:43:21.960Z,10.80
2023-02-08T04:45:51.044Z,12.83
2023-02-08T04:48:18.773Z,12.00
2023-02-08T04:50:47.358Z,13.10
2023-02-08T04:53:14.933Z,13.63
2023-02-08T04:55:42.425Z,12.83
2023-02-08T04:58:11.216Z,13.10
2023-02-08T05:00:39.084Z,12.60
2023-02-08T05:03:06.893Z,11.77
2023-02-08T05:05:34.400Z,14.23
2023-02-08T05:08:01.918Z,13.20
2023-02-08T05:10:29.654Z,13.63
2023-02-08T05:12:57.114Z,13.23
2023-02-08T05:15:25.951Z,12.73
2023-02-08T05:17:53.438Z,12.83
2023-02-08T05:20:21.542Z,13.60
2023-02-08T05:22:49.025Z,12.03
2023-02-08T05:25:17.960Z,12.20
2023-02-08T05:27:45.711Z,12.83
2023-02-08T05:30:13.622Z,13.50
2023-02-08T05:32:42.405Z,16.17
2023-02-08T05:35:10.480Z,13.60
2023-02-08T05:37:37.970Z,12.60
2023-02-08T05:40:06.052Z,13.60
2023-02-08T05:42:33.500Z,12.53
2023-02-08T05:45:00.940Z,12.77
2023-02-08T05:47:28.392Z,12.50
2023-02-08T05:49:57.159Z,15.63
2023-02-08T05:52:24.621Z,15.47
2023-02-08T05:54:52.061Z,15.40
2023-02-08T05:57:19.560Z,16.13
2023-02-08T05:59:47.050Z,13.90
2023-02-08T06:02:14.517Z,16.00
2023-02-08T06:04:41.969Z,14.17
2023-02-08T06:07:10.748Z,13.17
2023-02-08T06:09:38.215Z,13.13
2023-02-08T06:12:06.104Z,13.57
2023-02-08T06:14:33.590Z,13.83
2023-02-08T06:17:01.187Z,14.93
2023-02-08T06:19:28.659Z,13.30
2023-02-08T06:21:56.141Z,13.30
2023-02-08T06:24:25.300Z,14.43
2023-02-08T06:26:52.782Z,13.30
2023-02-08T06:29:20.338Z,12.90
2023-02-08T06:31:48.135Z,14.03
2023-02-08T06:34:15.653Z,13.23
2023-02-08T06:36:43.121Z,12.70
2023-02-08T06:39:10.560Z,12.93
2023-02-08T06:41:39.371Z,13.03
2023-02-08T06:44:07.177Z,14.10
2023-02-08T06:46:34.691Z,14.17
2023-02-08T06:49:02.171Z,14.80
2023-02-08T06:51:29.650Z,15.33
2023-02-08T06:53:57.126Z,14.30
2023-02-08T06:56:24.567Z,13.90
2023-02-08T06:58:53.349Z,14.17
2023-02-08T07:01:20.843Z,14.03
2023-02-08T07:03:48.365Z,14.77
2023-02-08T07:06:17.600Z,14.80
2023-02-08T07:08:45.454Z,16.87
2023-02-08T07:11:16.220Z,14.93
2023-02-08T07:13:43.998Z,17.87
2023-02-08T07:16:12.773Z,16.37
2023-02-08T07:18:40.281Z,15.83
2023-02-08T07:21:08.276Z,15.73
2023-02-08T07:23:35.750Z,14.93
2023-02-08T07:26:05.610Z,16.37
2023-02-08T07:28:33.675Z,17.07
2023-02-08T07:31:01.341Z,15.03
2023-02-08T07:33:30.173Z,17.07
2023-02-08T07:35:57.658Z,15.67
2023-02-08T07:38:25.129Z,16.90
2023-02-08T07:40:52.592Z,16.57
2023-02-08T07:43:20.048Z,16.77
2023-02-08T07:45:47.499Z,17.03
2023-02-08T07:48:14.925Z,30.03
2023-02-08T07:50:43.708Z,20.93
2023-02-08T07:53:11.152Z,16.10
2023-02-08T07:55:38.616Z,17.60
2023-02-08T07:58:06.091Z,19.40
2023-02-08T08:00:33.564Z,19.53
2023-02-08T08:03:01.437Z,42.50
2023-02-08T08:05:28.915Z,59.60
2023-02-08T08:07:57.702Z,84.60
2023-02-08T08:10:25.166Z,70.93
2023-02-08T08:12:52.621Z,91.47
2023-02-08T08:15:20.416Z,50.20
2023-02-08T08:17:47.887Z,20.33
2023-02-08T08:20:15.344Z,21.07
2023-02-08T08:22:42.858Z,17.07
2023-02-08T08:25:11.684Z,15.07
2023-02-08T08:27:40.982Z,13.30
2023-02-08T08:30:09.893Z,15.73
2023-02-08T08:32:38.782Z,12.83
2023-02-08T08:35:07.792Z,13.30
2023-02-08T08:37:36.476Z,13.30
2023-02-08T08:40:06.620Z,12.17
2023-02-08T08:42:36.201Z,15.30
2023-02-08T08:45:04.475Z,13.13
2023-02-08T08:47:32.360Z,13.60
2023-02-08T08:49:59.822Z,13.80
2023-02-08T08:52:27.300Z,14.27
2023-02-08T08:54:54.757Z,14.57
2023-02-08T08:57:22.244Z,16.27
2023-02-08T08:59:51.059Z,15.83
2023-02-08T09:02:18.529Z,14.10
2023-02-08T09:04:46.015Z,16.93
2023-02-08T09:07:13.473Z,13.20
2023-02-08T09:09:41.370Z,15.30
2023-02-08T09:12:09.176Z,15.97
2023-02-08T09:14:36.983Z,15.47
2023-02-08T09:17:06.003Z,15.53
2023-02-08T09:19:33.463Z,14.17
2023-02-08T09:22:00.939Z,14.53
2023-02-08T09:24:28.474Z,14.10
2023-02-08T09:26:55.929Z,12.33
2023-02-08T09:29:23.375Z,12.50
2023-02-08T09:31:51.977Z,13.20
2023-02-08T09:34:20.809Z,12.83
2023-02-08T09:36:48.585Z,13.83
2023-02-08T09:39:18.645Z,14.17
2023-02-08T09:42:09.702Z,13.83
2023-02-08T09:44:50.794Z,14.37
2023-02-08T09:47:22.429Z,11.97
2023-02-08T09:49:58.815Z,12.03
2023-02-08T09:52:34.032Z,12.77
2023-02-08T09:55:11.073Z,13.27
2023-02-08T09:57:40.203Z,12.83
2023-02-08T10:00:13.805Z,10.70
2023-02-08T10:02:45.031Z,11.30
2023-02-08T10:05:16.635Z,12.23
2023-02-08T10:07:44.413Z,10.77
2023-02-08T10:10:16.223Z,11.80
2023-02-08T10:12:52.056Z,12.80
2023-02-08T10:15:32.477Z,9.53
2023-02-08T10:18:18.822Z,9.67
2023-02-08T10:21:15.676Z,12.63
2023-02-08T10:23:59.499Z,13.73
2023-02-08T10:26:35.129Z,11.43
2023-02-08T10:29:27.363Z,12.93
2023-02-08T10:32:20.488Z,14.20
2023-02-08T10:34:51.205Z,13.27
2023-02-08T10:37:22.215Z,11.93
2023-02-08T10:39:51.508Z,12.53
2023-02-08T10:42:23.173Z,11.73
2023-02-08T10:44:58.689Z,10.53
2023-02-08T10:47:39.942Z,12.97
2023-02-08T10:50:13.222Z,12.77
2023-02-08T10:52:42.081Z,12.20
2023-02-08T10:55:15.971Z,12.03
2023-02-08T10:57:44.703Z,12.17
2023-02-08T11:00:19.034Z,11.83
2023-02-08T11:02:49.165Z,13.53
2023-02-08T11:05:20.070Z,11.83
2023-02-08T11:07:48.882Z,12.17
2023-02-08T11:10:25.101Z,6.97
2023-02-08T11:12:58.531Z,7.37
2023-02-08T11:15:30.055Z,9.73
2023-02-08T11:18:00.510Z,7.10
2023-02-08T11:20:34.674Z,9.10
2023-02-08T11:23:03.955Z,7.60
2023-02-08T11:25:35.934Z,9.63
2023-02-08T11:28:04.379Z,7.63
2023-02-08T11:30:33.379Z,11.63
2023-02-08T11:33:19.727Z,9.23
2023-02-08T11:36:00.407Z,7.80
2023-02-08T11:38:30.281Z,10.73
2023-02-08T11:41:00.310Z,9.57
2023-02-08T11:43:30.605Z,11.33
2023-02-08T11:46:00.206Z,9.03
2023-02-08T11:48:38.841Z,11.73
2023-02-08T11:51:07.525Z,11.33
2023-02-08T11:53:40.613Z,10.50
2023-02-08T11:56:16.932Z,10.97
2023-02-08T11:58:57.116Z,11.77
2023-02-08T12:01:29.338Z,11.93
2023-02-08T12:03:59.409Z,11.23
2023-02-08T12:06:44.972Z,11.53
2023-02-08T12:09:24.130Z,8.23
2023-02-08T12:12:03.614Z,10.80
2023-02-08T12:14:47.401Z,9.30
2023-02-08T12:17:43.582Z,10.33
2023-02-08T12:20:37.073Z,10.63
2023-02-08T12:23:32.352Z,9.40
2023-02-08T12:26:10.873Z,10.93
2023-02-08T12:28:51.788Z,11.67
2023-02-08T12:31:28.473Z,9.13
2023-02-08T12:34:07.476Z,10.50
2023-02-08T12:37:16.343Z,10.70
2023-02-08T12:40:11.296Z,10.07
2023-02-08T12:42:57.115Z,9.80
2023-02-08T12:45:44.979Z,7.67
2023-02-08T12:48:25.566Z,10.73
2023-02-08T12:51:01.125Z,10.03
2023-02-08T12:53:34.353Z,8.77
2023-02-08T12:56:06.410Z,8.63
2023-02-08T12:58:41.379Z,8.10
2023-02-08T13:01:14.989Z,9.43
2023-02-08T13:03:49.194Z,9.43
2023-02-08T13:06:22.045Z,10.37
2023-02-08T13:08:55.050Z,9.50
2023-02-08T13:11:31.237Z,10.80
2023-02-08T13:14:05.635Z,8.87
2023-02-08T13:16:39.360Z,9.70
2023-02-08T13:19:25.296Z,8.80
2023-02-08T13:21:54.327Z,10.57
2023-02-08T13:24:29.759Z,10.60
2023-02-08T13:26:57.271Z,10.40
2023-02-08T13:29:28.322Z,10.90
2023-02-08T13:32:01.388Z,11.17
2023-02-08T13:34:34.406Z,10.13
2023-02-08T13:37:08.876Z,10.50
2023-02-08T13:39:43.247Z,10.60
2023-02-08T13:42:22.827Z,11.00
2023-02-08T13:44:55.014Z,10.83
2023-02-08T13:47:26.652Z,11.10
2023-02-08T13:49:59.914Z,10.20
2023-02-08T13:52:50.655Z,11.17
2023-02-08T13:55:41.992Z,10.73
2023-02-08T13:58:37.301Z,11.20
2023-02-08T14:01:17.854Z,10.07
2023-02-08T14:03:45.835Z,10.33
2023-02-08T14:06:21.459Z,9.90
2023-02-08T14:08:56.052Z,11.20
2023-02-08T14:11:37.343Z,12.67
2023-02-08T14:14:13.883Z,10.97
2023-02-08T14:16:44.360Z,10.90
2023-02-08T14:19:24.116Z,11.40
2023-02-08T14:22:02.351Z,10.40
2023-02-08T14:24:34.206Z,11.80
2023-02-08T14:27:11.687Z,12.00
2023-02-08T14:29:39.467Z,11.73
2023-02-08T14:32:08.496Z,12.43
2023-02-08T14:34:40.764Z,11.80
2023-02-08T14:37:28.809Z,11.37
2023-02-08T14:40:29.890Z,11.97
2023-02-08T14:42:59.382Z,12.90
2023-02-08T14:45:30.943Z,11.33
2023-02-08T14:48:06.246Z,11.87
2023-02-08T14:50:40.090Z,10.77
2023-02-08T14:53:24.450Z,10.90
2023-02-08T14:55:57.381Z,12.37
2023-02-08T14:58:35.119Z,12.33
2023-02-08T15:01:07.747Z,11.97
2023-02-08T15:03:37.326Z,11.47
2023-02-08T15:06:31.867Z,11.90
2023-02-08T15:08:59.631Z,11.60
2023-02-08T15:11:32.004Z,12.40
2023-02-08T15:14:02.327Z,12.13
2023-02-08T15:16:34.974Z,11.23
2023-02-08T15:19:05.649Z,10.87
2023-02-08T15:21:36.574Z,11.43
2023-02-08T15:24:07.741Z,11.60
2023-02-08T15:26:35.763Z,11.27
2023-02-08T15:29:03.476Z,11.53
2023-02-08T15:31:34.759Z,11.40
2023-02-08T15:34:04.466Z,10.33
2023-02-08T15:36:34.748Z,11.07
2023-02-08T15:39:10.482Z,10.87
2023-02-08T15:41:38.704Z,10.80
2023-02-08T15:44:18.344Z,10.93
2023-02-08T15:46:47.441Z,9.50
2023-02-08T15:49:18.355Z,9.70
2023-02-08T15:51:47.469Z,10.60
2023-02-08T15:54:17.596Z,10.20
2023-02-08T15:56:51.135Z,10.73
2023-02-08T15:59:23.026Z,10.70
2023-02-08T16:01:51.971Z,10.07
2023-02-08T16:04:21.151Z,8.93
2023-02-08T16:06:51.640Z,8.60
2023-02-08T16:09:21.728Z,11.80
2023-02-08T16:11:51.022Z,10.93
2023-02-08T16:14:24.787Z,10.33
2023-02-08T16:16:57.217Z,11.50
2023-02-08T16:19:29.319Z,10.50
2023-02-08T16:21:58.746Z,8.60
2023-02-08T16:24:28.545Z,10.73
2023-02-08T16:27:04.248Z,9.90
2023-02-08T16:29:34.280Z,10.57
2023-02-08T16:32:11.060Z,11.00
2023-02-08T16:34:42.265Z,10.50
2023-02-08T16:37:26.902Z,10.40
2023-02-08T16:39:56.956Z,12.00
2023-02-08T16:42:29.235Z,9.30
2023-02-08T16:45:14.909Z,10.53
2023-02-08T16:47:44.783Z,12.00
2023-02-08T16:50:16.608Z,12.40
2023-02-08T16:52:44.220Z,12.20
2023-02-08T16:55:23.518Z,12.03
2023-02-08T16:57:53.401Z,9.00
2023-02-08T17:00:25.381Z,10.87
2023-02-08T17:02:54.181Z,7.60
2023-02-08T17:05:25.381Z,9.13
2023-02-08T17:07:53.449Z,8.93
2023-02-08T17:10:27.653Z,9.70
2023-02-08T17:13:09.932Z,9.23
2023-02-08T17:15:44.640Z,10.17
2023-02-08T17:18:13.354Z,7.93
2023-02-08T17:20:42.567Z,12.40
2023-02-08T17:23:11.302Z,10.50
2023-02-08T17:25:39.293Z,12.70
2023-02-08T17:28:09.026Z,13.20
2023-02-08T17:30:39.251Z,12.80
2023-02-08T17:33:07.585Z,10.83
2023-02-08T17:35:37.585Z,12.10
2023-02-08T17:38:07.100Z,10.43
2023-02-08T17:40:37.288Z,14.50
2023-02-08T17:43:06.199Z,13.50
2023-02-08T17:45:37.903Z,14.57
2023-02-08T17:48:05.798Z,11.00
2023-02-08T17:50:33.340Z,13.60
2023-02-08T17:53:00.812Z,12.43
2023-02-08T17:55:29.677Z,13.00
2023-02-08T17:57:57.175Z,12.10
2023-02-08T18:00:25.292Z,11.67
2023-02-08T18:02:54.587Z,9.87
2023-02-08T18:05:24.242Z,13.03
2023-02-08T18:07:52.546Z,8.03
2023-02-08T18:10:20.757Z,9.20
2023-02-08T18:12:49.566Z,13.53
2023-02-08T18:15:20.217Z,12.53
2023-02-08T18:17:48.028Z,12.03
2023-02-08T18:20:16.674Z,13.30
2023-02-08T18:22:45.087Z,12.50
2023-02-08T18:25:13.947Z,14.63
2023-02-08T18:27:41.921Z,14.23
2023-02-08T18:30:12.468Z,10.03
2023-02-08T18:32:40.283Z,13.37
2023-02-08T18:35:09.567Z,13.37
2023-02-08T18:37:38.160Z,13.93
2023-02-08T18:40:07.258Z,13.53
2023-02-08T18:42:36.214Z,13.70
2023-02-08T18:45:04.525Z,14.13
2023-02-08T18:47:33.484Z,13.37
2023-02-08T18:50:00.936Z,13.43
2023-02-08T18:52:29.583Z,12.10
2023-02-08T18:54:59.601Z,14.03
2023-02-08T18:57:27.251Z,12.20
2023-02-08T18:59:55.836Z,12.97
2023-02-08T19:02:26.211Z,10.33
2023-02-08T19:04:55.166Z,14.63
2023-02-08T19:07:22.795Z,13.93
2023-02-08T19:09:50.282Z,14.80
2023-02-08T19:12:18.935Z,14.00
2023-02-08T19:14:50.464Z,15.10
2023-02-08T19:17:18.218Z,13.40
2023-02-08T19:19:45.919Z,13.93
2023-02-08T19:22:14.940Z,14.60
2023-02-08T19:24:42.431Z,13.57
2023-02-08T19:27:09.994Z,13.17
2023-02-08T19:29:37.526Z,11.60
2023-02-08T19:32:05.145Z,12.40
2023-02-08T19:34:32.622Z,12.83
2023-02-08T19:37:00.191Z,12.57
2023-02-08T19:39:29.190Z,13.67
2023-02-08T19:41:58.509Z,11.10
2023-02-08T19:44:28.321Z,11.93
2023-02-08T19:46:57.449Z,12.20
2023-02-08T19:49:27.187Z,13.93
2023-02-08T19:51:55.465Z,12.03
2023-02-08T19:54:23.188Z,12.90
2023-02-08T19:56:54.498Z,12.17
2023-02-08T19:59:24.559Z,12.27
2023-02-08T20:01:52.656Z,12.70
2023-02-08T20:04:20.403Z,12.73
2023-02-08T20:06:51.865Z,11.93
2023-02-08T20:09:19.393Z,12.27
2023-02-08T20:12:02.281Z,11.00
2023-02-08T20:14:33.777Z,10.07
2023-02-08T20:17:01.917Z,10.20
2023-02-08T20:19:29.582Z,10.23
2023-02-08T20:21:57.050Z,12.27
2023-02-08T20:24:24.541Z,12.03
2023-02-08T20:26:52.060Z,11.23
2023-02-08T20:29:19.775Z,11.43
2023-02-08T20:31:52.009Z,12.00
2023-02-08T20:34:19.611Z,11.53
2023-02-08T20:37:05.298Z,11.90
2023-02-08T20:39:34.424Z,10.60
2023-02-08T20:42:01.936Z,10.10
2023-02-08T20:44:29.476Z,10.47
2023-02-08T20:46:58.277Z,10.50
2023-02-08T20:49:26.812Z,10.33
2023-02-08T20:51:54.819Z,10.03
2023-02-08T20:54:24.531Z,11.50
2023-02-08T20:56:52.827Z,9.70
2023-02-08T20:59:20.424Z,8.50
2023-02-08T21:01:48.038Z,8.80
2023-02-08T21:04:19.692Z,9.10
2023-02-08T21:06:47.153Z,8.33
2023-02-08T21:09:17.265Z,8.00
2023-02-08T21:11:45.677Z,8.37
2023-02-08T21:14:18.541Z,7.80
2023-02-08T21:16:47.705Z,9.77
2023-02-08T21:19:17.178Z,11.03
2023-02-08T21:21:44.731Z,10.30
2023-02-08T21:24:12.379Z,10.60
2023-02-08T21:26:39.866Z,10.93
2023-02-08T21:29:08.129Z,11.83
2023-02-08T21:31:36.714Z,13.93
2023-02-08T21:34:04.918Z,8.20
2023-02-08T21:36:34.459Z,9.20
2023-02-08T21:39:01.999Z,8.63
2023-02-08T21:41:31.909Z,7.90
2023-02-08T21:44:02.200Z,8.13
2023-02-08T21:46:30.184Z,7.00
2023-02-08T21:49:16.589Z,6.87
2023-02-08T21:52:03.513Z,7.53
2023-02-08T21:54:42.232Z,7.20
2023-02-08T21:57:12.332Z,7.17
2023-02-08T21:59:39.980Z,7.10
2023-02-08T22:02:08.873Z,5.77
2023-02-08T22:04:55.072Z,7.23
2023-02-08T22:07:24.714Z,6.13
2023-02-08T22:09:52.696Z,6.47
2023-02-08T22:12:22.349Z,5.97
2023-02-08T22:14:51.025Z,6.23
2023-02-08T22:17:19.220Z,6.50
2023-02-08T22:19:46.874Z,5.87
2023-02-08T22:22:14.496Z,6.33
2023-02-08T22:24:43.470Z,5.50
2023-02-08T22:27:11.673Z,5.67
2023-02-08T22:29:39.158Z,6.23
2023-02-08T22:32:07.399Z,6.30
2023-02-08T22:34:34.917Z,5.60
2023-02-08T22:37:04.035Z,5.13
2023-02-08T22:39:32.915Z,6.10
2023-02-08T22:42:01.776Z,5.60
2023-02-08T22:44:29.324Z,5.97
2023-02-08T22:46:57.439Z,6.37
2023-02-08T22:49:24.965Z,5.32
2023-02-08T22:51:52.453Z,5.50
2023-02-08T22:54:19.940Z,5.20
2023-02-08T22:56:47.442Z,5.80
2023-02-08T22:59:16.339Z,6.27
2023-02-08T23:01:43.895Z,7.00
2023-02-08T23:04:11.597Z,7.13
2023-02-08T23:06:39.215Z,7.70
2023-02-08T23:09:07.975Z,8.07
2023-02-08T23:11:35.738Z,8.57
2023-02-08T23:14:03.246Z,8.97
2023-02-08T23:16:32.601Z,9.03
2023-02-08T23:19:00.145Z,8.50
2023-02-08T23:21:27.891Z,8.23
2023-02-08T23:23:55.382Z,7.90
2023-02-08T23:26:23.410Z,8.93
2023-02-08T23:28:52.209Z,8.10
2023-02-08T23:31:21.401Z,8.53
2023-02-08T23:33:50.688Z,8.83
2023-02-08T23:36:20.780Z,8.73
2023-02-08T23:38:49.155Z,8.73
2023-02-08T23:41:18.990Z,9.73
2023-02-08T23:43:46.480Z,8.40
2023-02-08T23:46:17.215Z,8.10
2023-02-08T23:48:47.541Z,9.33
2023-02-08T23:51:18.481Z,9.60
2023-02-08T23:53:46.484Z,8.90
2023-02-08T23:56:16.704Z,8.27
2023-02-08T23:58:45.706Z,9.07
